createdAt,value
2019-05-16T00:04:01.649Z,75.20
2019-05-16T00:08:05.890Z,74.50
2019-05-16T00:12:10.095Z,74.60
2019-05-16T00:16:14.376Z,74.60
2019-05-16T00:20:19.214Z,74.60
2019-05-16T00:24:23.497Z,74.80
2019-05-16T00:28:28.603Z,74.80
2019-05-16T00:32:32.996Z,75.00
2019-05-16T00:36:38.253Z,75.10
2019-05-16T00:40:42.533Z,75.20
2019-05-16T00:44:47.922Z,75.30
2019-05-16T00:48:52.367Z,75.60
2019-05-16T00:52:58.730Z,76.00
2019-05-16T00:57:03.964Z,75.90
2019-05-16T01:01:08.636Z,76.50
2019-05-16T01:05:14.579Z,76.10
2019-05-16T01:09:19.002Z,76.60
2019-05-16T01:13:23.244Z,76.40
2019-05-16T01:17:28.305Z,76.50
2019-05-16T01:21:32.689Z,77.70
2019-05-16T01:25:38.789Z,77.60
2019-05-16T01:29:42.860Z,77.70
2019-05-16T01:33:47.887Z,78.10
2019-05-16T01:37:52.163Z,77.60
2019-05-16T01:41:58.524Z,77.60
2019-05-16T01:46:02.300Z,77.60
2019-05-16T01:50:08.719Z,77.70
2019-05-16T01:54:12.669Z,78.40
2019-05-16T01:58:19.822Z,78.10
2019-05-16T02:02:22.960Z,78.50
2019-05-16T02:06:28.764Z,78.30
2019-05-16T02:10:33.126Z,78.40
2019-05-16T02:14:38.809Z,78.30
2019-05-16T02:18:43.079Z,78.10
2019-05-16T02:22:48.244Z,78.00
2019-05-16T02:26:52.623Z,77.90
2019-05-16T02:30:56.919Z,78.00
2019-05-16T02:35:01.503Z,78.40
2019-05-16T02:39:06.989Z,79.40
2019-05-16T02:43:12.477Z,79.50
2019-05-16T02:47:16.923Z,79.90
2019-05-16T02:51:21.534Z,79.30
2019-05-16T02:55:25.980Z,79.10
2019-05-16T02:59:30.848Z,79.00
2019-05-16T03:03:35.707Z,79.30
2019-05-16T03:07:46.493Z,79.00
2019-05-16T03:11:51.010Z,79.00
2019-05-16T03:16:00.478Z,78.00
2019-05-16T03:20:03.389Z,78.60
2019-05-16T03:24:07.613Z,78.60
2019-05-16T03:28:11.809Z,78.40
2019-05-16T03:32:16.044Z,78.40
2019-05-16T03:36:25.257Z,78.80
2019-05-16T03:40:31.057Z,78.70
2019-05-16T03:44:33.472Z,78.80
2019-05-16T03:48:40.671Z,78.40
2019-05-16T03:52:44.067Z,78.80
2019-05-16T03:56:51.189Z,79.40
2019-05-16T04:00:55.384Z,79.10
2019-05-16T04:05:02.008Z,79.70
2019-05-16T04:09:07.576Z,80.00
2019-05-16T04:13:11.894Z,80.40
2019-05-16T04:17:16.187Z,80.10
2019-05-16T04:21:21.868Z,80.70
2019-05-16T04:25:26.418Z,80.40
2019-05-16T04:29:31.567Z,80.90
2019-05-16T04:33:36.197Z,80.70
2019-05-16T04:37:42.360Z,81.80
2019-05-16T04:41:46.348Z,81.50
2019-05-16T04:45:52.168Z,82.20
2019-05-16T04:49:56.557Z,82.10
2019-05-16T04:54:01.986Z,82.40
2019-05-16T04:58:06.649Z,82.10
2019-05-16T05:02:12.252Z,82.80
2019-05-16T05:06:16.904Z,82.70
2019-05-16T05:10:21.145Z,84.80
2019-05-16T05:14:25.338Z,83.30
2019-05-16T05:18:30.230Z,82.80
2019-05-16T05:22:34.806Z,83.10
2019-05-16T05:26:41.119Z,83.30
2019-05-16T05:30:45.584Z,83.50
2019-05-16T05:34:50.337Z,84.30
2019-05-16T05:39:07.887Z,84.40
2019-05-16T05:43:00.685Z,83.30
2019-05-16T05:47:04.951Z,84.20
2019-05-16T05:51:11.232Z,84.90
2019-05-16T05:55:15.005Z,85.20
2019-05-16T05:59:20.106Z,85.40
2019-05-16T06:03:24.565Z,85.10
2019-05-16T06:07:30.023Z,86.10
2019-05-16T06:11:34.388Z,85.70
2019-05-16T06:15:39.994Z,85.50
2019-05-16T06:19:44.308Z,86.30
2019-05-16T06:23:50.908Z,86.40
2019-05-16T06:27:54.468Z,85.90
2019-05-16T06:32:00.183Z,86.60
2019-05-16T06:36:04.480Z,86.60
2019-05-16T06:40:10.740Z,86.30
2019-05-16T06:48:39.907Z,85.80
2019-05-16T06:52:45.852Z,85.70
2019-05-16T06:56:50.948Z,86.50
2019-05-16T07:00:55.331Z,85.70
2019-05-16T07:05:01.163Z,85.20
2019-05-16T07:09:07.093Z,86.20
2019-05-16T07:13:11.352Z,86.40
2019-05-16T07:17:15.680Z,86.00
2019-05-16T07:21:20.290Z,86.60
2019-05-16T07:25:24.612Z,85.70
2019-05-16T07:29:30.863Z,86.60
2019-05-16T07:33:34.839Z,86.40
2019-05-16T07:37:40.043Z,86.30
2019-05-16T07:41:44.326Z,86.50
2019-05-16T07:45:50.899Z,86.20
2019-05-16T07:49:54.491Z,86.90
2019-05-16T07:53:59.799Z,87.50
2019-05-16T07:58:04.024Z,87.70
2019-05-16T08:02:10.788Z,87.80
2019-05-16T08:06:14.095Z,87.20
2019-05-16T08:10:35.922Z,87.30
2019-05-16T08:14:24.261Z,87.20
2019-05-16T08:18:30.250Z,87.50
2019-05-16T08:22:34.320Z,86.70
2019-05-16T08:26:42.490Z,88.30
2019-05-16T08:30:44.458Z,87.50
2019-05-16T08:34:51.377Z,87.90
2019-05-16T08:38:54.541Z,87.60
2019-05-16T08:43:00.423Z,87.60
2019-05-16T08:47:06.394Z,87.60
2019-05-16T08:51:12.203Z,88.20
2019-05-16T08:55:16.797Z,88.00
2019-05-16T08:59:21.684Z,87.70
2019-05-16T09:03:25.981Z,87.60
2019-05-16T09:07:31.848Z,89.30
2019-05-16T09:11:43.547Z,88.70
2019-05-16T09:15:42.057Z,88.20
2019-05-16T09:19:47.154Z,90.00
2019-05-16T09:23:51.469Z,89.20
2019-05-16T09:27:56.900Z,89.20
2019-05-16T09:32:15.703Z,89.00
2019-05-16T09:36:08.049Z,89.70
2019-05-16T09:40:12.855Z,89.30
2019-05-16T09:44:18.267Z,89.60
2019-05-16T09:48:22.812Z,90.00
2019-05-16T09:52:27.470Z,89.50
2019-05-16T09:56:31.873Z,90.20
2019-05-16T10:00:37.404Z,90.30
2019-05-16T10:04:41.790Z,90.80
2019-05-16T10:08:46.445Z,91.00
2019-05-16T10:12:50.835Z,90.90
2019-05-16T10:16:57.717Z,90.90
2019-05-16T10:21:01.041Z,91.30
2019-05-16T10:25:05.533Z,91.20
2019-05-16T10:29:10.901Z,91.40
2019-05-16T10:33:18.785Z,91.10
2019-05-16T10:37:21.245Z,91.00
2019-05-16T10:41:25.471Z,91.30
2019-05-16T10:45:29.711Z,91.10
2019-05-16T10:49:37.898Z,91.20
2019-05-16T10:54:04.346Z,91.30
2019-05-16T10:57:47.495Z,91.60
2019-05-16T11:01:51.540Z,91.30
2019-05-16T11:06:03.019Z,91.50
2019-05-16T11:10:03.497Z,91.50
2019-05-16T11:14:09.363Z,91.90
2019-05-16T11:18:13.371Z,91.90
2019-05-16T11:22:17.579Z,92.00
2019-05-16T11:26:21.779Z,91.90
2019-05-16T11:30:28.004Z,92.30
2019-05-16T11:34:31.897Z,92.10
2019-05-16T11:38:37.830Z,92.50
2019-05-16T11:42:42.017Z,92.60
2019-05-16T11:46:49.215Z,92.50
2019-05-16T11:50:52.222Z,92.80
2019-05-16T11:54:57.155Z,92.50
2019-05-16T11:59:01.580Z,92.20
2019-05-16T12:03:05.781Z,92.40
2019-05-16T12:07:10.001Z,92.30
2019-05-16T12:11:14.180Z,92.80
2019-05-16T12:15:20.117Z,92.60
2019-05-16T12:19:33.303Z,92.90
2019-05-16T12:23:30.391Z,92.80
2019-05-16T12:27:41.698Z,93.00
2019-05-16T12:31:54.133Z,92.70
2019-05-16T12:35:47.459Z,92.70
2019-05-16T12:39:51.978Z,92.90
2019-05-16T12:43:57.739Z,92.50
2019-05-16T12:48:02.098Z,92.40
2019-05-16T12:52:06.792Z,92.50
2019-05-16T12:56:11.215Z,92.60
2019-05-16T13:00:19.054Z,92.70
2019-05-16T13:04:23.579Z,92.90
2019-05-16T13:08:27.796Z,92.80
2019-05-16T13:12:31.995Z,93.00
2019-05-16T13:16:37.588Z,92.80
2019-05-16T13:20:41.926Z,92.90
2019-05-16T13:24:47.928Z,92.80
2019-05-16T13:28:52.027Z,92.70
2019-05-16T13:32:56.517Z,92.80
2019-05-16T13:37:00.987Z,93.30
2019-05-16T13:41:07.381Z,93.30
2019-05-16T13:45:11.497Z,93.50
2019-05-16T13:49:17.925Z,93.10
2019-05-16T13:53:21.555Z,93.90
2019-05-16T13:57:28.345Z,93.70
2019-05-16T14:01:31.776Z,93.50
2019-05-16T14:05:38.014Z,93.30
2019-05-16T14:09:42.003Z,93.40
2019-05-16T14:13:46.949Z,93.20
2019-05-16T14:17:51.411Z,93.50
2019-05-16T14:21:56.968Z,93.20
2019-05-16T14:26:01.404Z,93.40
2019-05-16T14:30:07.536Z,93.40
2019-05-16T14:34:11.892Z,93.30
2019-05-16T14:38:17.701Z,93.70
2019-05-16T14:42:22.144Z,93.90
2019-05-16T14:46:27.495Z,93.70
2019-05-16T14:50:32.603Z,93.40
2019-05-16T14:54:37.797Z,93.40
2019-05-16T14:58:42.123Z,93.50
2019-05-16T15:02:48.031Z,93.70
2019-05-16T15:06:52.217Z,94.70
2019-05-16T15:10:57.402Z,93.70
2019-05-16T15:15:16.057Z,94.20
2019-05-16T15:19:08.202Z,94.70
2019-05-16T15:23:12.792Z,94.50
2019-05-16T15:27:17.199Z,94.70
2019-05-16T15:31:21.421Z,95.00
2019-05-16T15:35:27.407Z,95.20
2019-05-16T15:39:31.488Z,95.30
2019-05-16T15:43:36.869Z,95.40
2019-05-16T15:47:41.361Z,95.70
2019-05-16T15:51:45.648Z,95.10
2019-05-16T15:55:53.456Z,95.40
2019-05-16T15:59:57.756Z,95.20
2019-05-16T16:04:02.014Z,95.70
2019-05-16T16:08:06.935Z,95.20
2019-05-16T16:12:11.324Z,95.70
2019-05-16T16:16:17.427Z,95.50
2019-05-16T16:20:21.407Z,95.40
2019-05-16T16:24:27.879Z,95.20
2019-05-16T16:28:31.482Z,95.60
2019-05-16T16:32:38.034Z,95.50
2019-05-16T16:36:41.741Z,95.60
2019-05-16T16:40:48.000Z,95.20
2019-05-16T16:44:51.825Z,95.30
2019-05-16T16:48:56.874Z,95.50
2019-05-16T16:53:01.225Z,95.00
2019-05-16T16:57:07.812Z,95.40
2019-05-16T17:01:11.371Z,95.10
2019-05-16T17:05:17.046Z,95.50
2019-05-16T17:09:21.372Z,96.20
2019-05-16T17:13:27.618Z,95.90
2019-05-16T17:17:31.593Z,96.30
2019-05-16T17:21:36.826Z,95.90
2019-05-16T17:25:41.288Z,96.10
2019-05-16T17:29:47.422Z,96.30
2019-05-16T17:33:51.431Z,95.80
2019-05-16T17:37:57.310Z,96.00
2019-05-16T17:42:01.554Z,96.20
2019-05-16T17:46:07.007Z,95.80
2019-05-16T17:50:12.118Z,96.00
2019-05-16T17:54:17.269Z,95.80
2019-05-16T17:58:21.770Z,95.70
2019-05-16T18:02:26.684Z,95.60
2019-05-16T18:06:31.084Z,95.20
2019-05-16T18:10:36.505Z,95.60
2019-05-16T18:14:40.911Z,95.90
2019-05-16T18:18:46.870Z,95.40
2019-05-16T18:22:51.200Z,95.10
2019-05-16T18:26:57.157Z,95.30
2019-05-16T18:31:01.544Z,95.10
2019-05-16T18:35:07.359Z,95.80
2019-05-16T18:39:11.707Z,95.40
2019-05-16T18:43:16.605Z,95.40
2019-05-16T18:47:20.983Z,95.30
2019-05-16T18:51:26.497Z,95.30
2019-05-16T18:55:30.855Z,95.50
2019-05-16T18:59:36.914Z,95.40
2019-05-16T19:03:40.997Z,95.40
2019-05-16T19:07:47.371Z,95.70
2019-05-16T19:11:51.088Z,95.60
2019-05-16T19:15:57.174Z,95.70
2019-05-16T19:20:01.179Z,95.80
2019-05-16T19:24:06.962Z,95.70
2019-05-16T19:28:11.291Z,95.90
2019-05-16T19:32:17.236Z,95.70
2019-05-16T19:36:21.660Z,95.50
2019-05-16T19:40:25.875Z,97.20
2019-05-16T19:44:30.105Z,96.20
2019-05-16T19:48:34.336Z,96.00
2019-05-16T19:52:38.557Z,96.20
2019-05-16T19:56:42.779Z,96.00
2019-05-16T20:00:46.996Z,95.90
2019-05-16T20:04:51.243Z,95.60
2019-05-16T20:08:55.609Z,96.00
2019-05-16T20:12:59.880Z,95.90
2019-05-16T20:17:04.225Z,95.90
2019-05-16T20:21:08.551Z,96.10
2019-05-16T20:25:12.863Z,95.80
2019-05-16T20:29:17.206Z,95.60
2019-05-16T20:33:21.451Z,95.70
2019-05-16T20:37:26.538Z,95.80
2019-05-16T20:41:30.835Z,95.50
2019-05-16T20:45:36.222Z,95.70
2019-05-16T20:49:41.134Z,95.80
2019-05-16T20:53:46.833Z,95.80
2019-05-16T20:57:51.252Z,95.70
2019-05-16T21:01:57.438Z,96.00
2019-05-16T21:06:01.445Z,95.70
2019-05-16T21:10:08.057Z,96.00
2019-05-16T21:14:12.765Z,96.10
2019-05-16T21:18:17.031Z,96.20
2019-05-16T21:22:21.280Z,96.10
2019-05-16T21:26:26.312Z,95.90
2019-05-16T21:30:30.615Z,96.10
2019-05-16T21:34:36.567Z,96.00
2019-05-16T21:38:40.938Z,96.00
2019-05-16T21:42:45.174Z,96.10
2019-05-16T21:46:49.602Z,96.10
2019-05-16T21:50:53.818Z,96.40
2019-05-16T21:54:58.044Z,96.30
2019-05-16T21:59:02.725Z,96.80
2019-05-16T22:03:07.085Z,96.90
2019-05-16T22:07:11.541Z,96.40
2019-05-16T22:11:17.220Z,96.40
2019-05-16T22:15:21.617Z,96.50
2019-05-16T22:19:27.080Z,96.40
2019-05-16T22:23:31.446Z,96.60
2019-05-16T22:27:35.675Z,96.50
2019-05-16T22:31:39.895Z,96.70
2019-05-16T22:35:46.453Z,96.70
2019-05-16T22:39:49.991Z,96.20
2019-05-16T22:43:54.295Z,96.40
2019-05-16T22:47:58.533Z,96.40
2019-05-16T22:52:02.740Z,96.50
2019-05-16T22:56:07.584Z,96.30
2019-05-16T23:00:14.336Z,96.40
2019-05-16T23:04:18.664Z,96.50
2019-05-16T23:08:22.879Z,96.50
2019-05-16T23:12:27.183Z,96.40
2019-05-16T23:16:31.489Z,96.70
2019-05-16T23:20:37.067Z,96.70
2019-05-16T23:24:41.429Z,96.50
2019-05-16T23:28:47.172Z,96.70
2019-05-16T23:32:51.553Z,96.80
2019-05-16T23:36:57.040Z,96.90
2019-05-16T23:41:01.370Z,96.80
2019-05-16T23:45:08.659Z,96.70
2019-05-16T23:49:12.455Z,97.10
2019-05-16T23:53:16.647Z,96.80
2019-05-16T23:57:20.877Z,96.80
